Time;durP1;ratioP1;P1;durP2;ratioP2;P2;SDS_P1;SDS_P2;PMS_P1;PMS_P2;Temp;Humidity;BMP_temperature;BMP_pressure;BME280_temperature;BME280_humidity;BME280_pressure;Samples;Min_cycle;Max_cycle;Signal;HPM_P1;HPM_P2
2022/07/02 00:02:10;;;;;;;14.32;8.88;;;;;;;13.18;94.46;101254.22;5020077;28;20420;-70
2022/07/02 00:04:41;;;;;;;14.75;9.18;;;;;;;13.14;95.86;101258.63;5020957;28;20048;-70
2022/07/02 00:07:07;;;;;;;11.63;7.60;;;;;;;13.13;95.74;101251.59;5021844;28;20049;-70
2022/07/02 00:09:32;;;;;;;15.30;9.27;;;;;;;13.13;96.66;101258.66;5021184;28;20116;-70
2022/07/02 00:11:58;;;;;;;15.13;8.63;;;;;;;13.14;96.41;101258.63;5022845;28;20065;-70
2022/07/02 00:14:24;;;;;;;20.98;9.35;;;;;;;13.16;96.43;101262.16;5020215;28;20049;-70
2022/07/02 00:16:52;;;;;;;15.57;8.30;;;;;;;13.18;96.37;101258.59;5022984;28;20575;-70
2022/07/02 00:19:17;;;;;;;17.90;9.75;;;;;;;13.12;95.93;101251.56;5021537;28;20029;-70
2022/07/02 00:21:43;;;;;;;16.00;8.77;;;;;;;13.06;96.20;101256.91;5020608;28;20033;-70
2022/07/02 00:24:09;;;;;;;11.43;7.35;;;;;;;13.02;96.37;101261.38;5022701;28;20438;-70
2022/07/02 00:26:39;;;;;;;15.27;8.10;;;;;;;13.02;96.93;101250.75;5020159;28;20531;-70
2022/07/02 00:29:26;;;;;;;14.25;8.88;;;;;;;13.05;96.84;101258.69;5020674;28;20041;-70
2022/07/02 00:31:52;;;;;;;19.73;9.15;;;;;;;13.03;96.70;101257.81;5023028;28;20045;-70
2022/07/02 00:34:18;;;;;;;14.75;7.63;;;;;;;13.03;95.83;101254.28;5024289;28;20040;-70
2022/07/02 00:36:44;;;;;;;13.63;8.05;;;;;;;13.00;95.19;101260.47;5019186;28;20468;-70
2022/07/02 00:39:10;;;;;;;14.80;8.02;;;;;;;12.96;95.31;101266.66;5022105;28;20152;-70
2022/07/02 00:41:35;;;;;;;12.98;7.28;;;;;;;12.92;94.69;101268.47;5019717;28;20416;-70
2022/07/02 00:44:03;;;;;;;13.50;6.72;;;;;;;12.88;94.96;101260.53;5022846;28;20029;-70
2022/07/02 00:46:29;;;;;;;17.23;9.07;;;;;;;12.85;94.55;101266.72;5020423;28;20550;-70
2022/07/02 00:48:55;;;;;;;12.60;7.95;;;;;;;12.79;94.02;101280.00;5021437;28;20045;-70
2022/07/02 00:51:20;;;;;;;10.38;7.75;;;;;;;12.77;94.20;101284.41;5020831;28;20030;-70
2022/07/02 00:53:45;;;;;;;13.93;7.18;;;;;;;12.75;94.30;101274.69;5020564;28;20037;-70
2022/07/02 00:56:11;;;;;;;13.07;7.30;;;;;;;12.68;94.60;101277.38;5022751;28;20034;-70
2022/07/02 00:58:37;;;;;;;11.98;7.22;;;;;;;12.68;95.36;101271.19;5019552;28;20044;-70
2022/07/02 01:01:02;;;;;;;13.60;8.80;;;;;;;12.60;94.90;101271.22;5024913;28;20033;-70
2022/07/02 01:03:29;;;;;;;13.30;7.28;;;;;;;12.53;95.17;101268.59;5027179;28;20484;-70
2022/07/02 01:05:56;;;;;;;10.68;7.13;;;;;;;12.50;95.72;101269.47;5025147;28;20387;-70
2022/07/02 01:11:09;;;;;;;10.95;5.78;;;;;;;12.40;95.67;101267.75;5021126;28;20135;-70
2022/07/02 01:13:35;;;;;;;8.70;5.60;;;;;;;12.39;95.46;101272.16;5022769;28;20492;-70
2022/07/02 01:16:01;;;;;;;8.73;5.47;;;;;;;12.37;94.60;101273.91;5023054;28;20037;-70
2022/07/02 01:18:26;;;;;;;8.90;5.07;;;;;;;12.22;95.09;101269.50;5022373;28;20028;-70
2022/07/02 01:20:52;;;;;;;7.20;4.35;;;;;;;12.16;95.41;101282.78;5020081;28;20117;-69
2022/07/02 01:23:17;;;;;;;7.10;3.92;;;;;;;12.09;94.21;101281.00;5020768;28;20037;-70
2022/07/02 01:25:50;;;;;;;7.97;4.30;;;;;;;12.05;94.02;101284.50;5021590;28;20056;-69
2022/07/02 01:28:16;;;;;;;225.52;8.00;;;;;;;12.03;94.77;101294.25;5019194;28;20042;-70
2022/07/02 01:30:41;;;;;;;12.07;6.82;;;;;;;12.02;95.31;101282.75;5025450;28;20416;-70
2022/07/02 01:33:07;;;;;;;11.32;5.85;;;;;;;11.99;96.21;101287.16;5019985;28;20048;-70
2022/07/02 01:35:32;;;;;;;67.70;6.38;;;;;;;11.91;95.63;101284.53;5019309;28;20048;-70
2022/07/02 01:37:57;;;;;;;5.93;3.63;;;;;;;11.80;94.97;101281.84;5023865;28;20042;-70
2022/07/02 01:40:23;;;;;;;7.32;3.42;;;;;;;11.80;95.09;101279.19;5022305;28;20029;-69
2022/07/02 01:42:48;;;;;;;10.13;4.35;;;;;;;11.80;95.44;101284.47;5019170;28;20029;-70
2022/07/02 01:45:14;;;;;;;6.88;3.50;;;;;;;11.84;94.88;101277.41;5025951;28;20176;-70
2022/07/02 01:47:39;;;;;;;4.88;3.13;;;;;;;11.81;94.12;101273.00;5027528;28;20065;-69
2022/07/02 01:50:05;;;;;;;9.73;5.35;;;;;;;11.75;94.50;101272.13;5024197;28;20037;-70
2022/07/02 01:52:30;;;;;;;7.93;4.90;;;;;;;11.70;95.34;101281.84;5023453;28;20515;-70
2022/07/02 01:54:56;;;;;;;7.75;4.72;;;;;;;11.69;96.34;101278.31;5025652;28;20068;-70
2022/07/02 01:57:21;;;;;;;10.57;5.78;;;;;;;11.71;96.18;101280.94;5022810;28;20041;-71
2022/07/02 01:59:46;;;;;;;9.73;5.80;;;;;;;11.71;96.81;101279.19;5022708;28;20041;-71
2022/07/02 02:02:12;;;;;;;11.15;5.93;;;;;;;11.74;96.57;101276.56;5024826;28;20403;-70
2022/07/02 02:04:37;;;;;;;8.82;5.22;;;;;;;11.79;96.03;101284.50;5022027;28;20034;-70
2022/07/02 02:07:03;;;;;;;8.70;4.72;;;;;;;11.75;94.99;101293.31;5023918;28;20046;-70
2022/07/02 02:09:29;;;;;;;12.35;5.05;;;;;;;11.70;95.32;101292.41;5023805;28;20496;-70
2022/07/02 02:11:54;;;;;;;8.73;5.25;;;;;;;11.61;94.34;101303.88;5024982;28;20069;-70
2022/07/02 02:14:20;;;;;;;8.07;4.10;;;;;;;11.57;94.63;101299.44;5022313;28;20048;-70
2022/07/02 02:16:45;;;;;;;7.28;4.10;;;;;;;11.61;94.79;101290.63;5025356;28;20045;-70
2022/07/02 02:19:11;;;;;;;7.32;4.50;;;;;;;11.67;94.60;101303.00;5023317;28;20042;-70
2022/07/02 02:21:36;;;;;;;5.85;3.20;;;;;;;11.67;94.24;101303.88;5023264;28;20079;-70
2022/07/02 02:24:01;;;;;;;8.77;4.28;;;;;;;11.69;94.14;101303.88;5024564;28;20135;-70
2022/07/02 02:26:27;;;;;;;6.63;3.55;;;;;;;11.69;94.40;101312.69;5022715;28;20108;-70
2022/07/02 02:28:53;;;;;;;5.90;3.83;;;;;;;11.64;94.16;101309.16;5025346;28;20053;-70
2022/07/02 02:31:19;;;;;;;6.03;3.15;;;;;;;11.58;93.48;101307.38;5021780;28;20557;-70
2022/07/02 02:33:44;;;;;;;8.75;4.43;;;;;;;11.58;94.15;101312.66;5024696;28;20037;-70
2022/07/02 02:36:10;;;;;;;6.25;4.30;;;;;;;11.60;93.91;101315.28;5021600;28;20409;-70
2022/07/02 02:38:38;;;;;;;9.63;5.18;;;;;;;11.61;94.89;101325.00;5023242;28;20594;-70
2022/07/02 02:41:07;;;;;;;5.63;3.83;;;;;;;11.63;94.77;101326.78;5025687;28;20033;-70
2022/07/02 02:43:33;;;;;;;8.70;4.20;;;;;;;11.62;94.22;101325.00;5028612;28;20038;-70
2022/07/02 02:45:59;;;;;;;7.15;4.22;;;;;;;11.67;94.65;101332.94;5029067;28;20147;-70
2022/07/02 02:48:25;;;;;;;8.43;4.70;;;;;;;11.70;95.15;101327.66;5026355;28;20053;-70
2022/07/02 02:50:50;;;;;;;11.00;6.43;;;;;;;11.76;94.92;101335.63;5023669;28;20072;-69
2022/07/02 02:53:16;;;;;;;9.73;5.68;;;;;;;11.79;94.92;101337.41;5028431;28;20041;-70
2022/07/02 02:55:41;;;;;;;6.65;3.70;;;;;;;11.83;95.18;101339.16;5021095;28;20091;-71
2022/07/02 02:58:06;;;;;;;5.65;3.63;;;;;;;11.81;94.36;101341.78;5024718;28;20037;-71
2022/07/02 03:00:32;;;;;;;6.75;3.85;;;;;;;11.82;93.63;101346.19;5024980;28;20076;-71
2022/07/02 03:02:57;;;;;;;5.60;2.75;;;;;;;11.80;93.08;101344.44;5022259;28;20107;-71
2022/07/02 03:05:22;;;;;;;7.18;3.78;;;;;;;11.79;93.37;101340.91;5023048;28;20423;-71
2022/07/02 03:07:48;;;;;;;7.05;4.15;;;;;;;11.77;93.30;101352.38;5026903;28;20038;-70
2022/07/02 03:10:13;;;;;;;6.00;2.97;;;;;;;11.61;93.72;101347.03;5025648;28;20121;-70
2022/07/02 03:12:39;;;;;;;4.93;2.53;;;;;;;11.62;94.60;101350.56;5023991;28;20049;-70
2022/07/02 03:15:05;;;;;;;5.93;2.97;;;;;;;11.62;93.51;101358.50;5021647;28;20041;-70
2022/07/02 03:17:30;;;;;;;4.18;2.30;;;;;;;11.66;93.46;101362.94;5023525;28;20040;-71
2022/07/02 03:19:55;;;;;;;4.97;2.97;;;;;;;11.71;93.12;101366.47;5022566;28;20041;-70
2022/07/02 03:22:21;;;;;;;6.07;3.08;;;;;;;11.72;92.97;101367.34;5022635;28;20049;-70
2022/07/02 03:24:46;;;;;;;4.30;2.42;;;;;;;11.71;92.61;101371.75;5030571;28;20129;-71
2022/07/02 03:27:12;;;;;;;4.07;2.30;;;;;;;11.72;92.48;101378.78;5029221;28;20048;-71
2022/07/02 03:29:37;;;;;;;5.13;2.38;;;;;;;11.77;92.38;101384.97;5022221;28;20049;-70
2022/07/02 03:32:03;;;;;;;4.82;2.10;;;;;;;11.74;92.87;101376.16;5023126;28;20033;-71
2022/07/02 03:34:28;;;;;;;3.83;2.10;;;;;;;11.74;92.98;101381.47;5020347;28;20034;-71
2022/07/02 03:36:54;;;;;;;4.68;2.17;;;;;;;11.82;92.87;101385.88;5019624;28;20030;-71
2022/07/02 03:39:19;;;;;;;4.50;2.53;;;;;;;11.88;92.17;101389.44;5024476;28;20499;-71
2022/07/02 03:41:45;;;;;;;4.15;2.67;;;;;;;11.93;92.24;101388.56;5027641;28;20048;-71
2022/07/02 03:44:10;;;;;;;4.38;2.20;;;;;;;11.99;92.27;101387.69;5022768;28;20041;-71
2022/07/02 03:46:35;;;;;;;3.72;2.50;;;;;;;12.04;92.10;101393.88;5024470;28;20034;-71
2022/07/02 03:49:01;;;;;;;5.38;2.45;;;;;;;12.08;91.85;101385.09;5024301;28;20042;-71
2022/07/02 03:51:26;;;;;;;4.18;2.40;;;;;;;12.16;92.12;101396.56;5021556;28;20041;-71
2022/07/02 03:53:51;;;;;;;5.10;2.55;;;;;;;12.21;91.54;101394.81;5024366;28;20041;-70
2022/07/02 03:56:17;;;;;;;3.80;2.30;;;;;;;12.23;92.16;101398.31;5022580;28;20049;-71
2022/07/02 03:58:42;;;;;;;4.60;1.95;;;;;;;12.31;92.48;101394.78;5024195;28;20041;-71
2022/07/02 04:01:07;;;;;;;3.65;2.00;;;;;;;12.40;91.54;101394.81;5023208;28;20454;-71
2022/07/02 04:03:34;;;;;;;4.53;2.58;;;;;;;12.43;91.02;101395.69;5021118;28;20709;-71
2022/07/02 04:06:00;;;;;;;5.72;3.13;;;;;;;12.34;91.41;101395.69;5019628;28;20072;-71
2022/07/02 04:08:25;;;;;;;4.13;2.22;;;;;;;12.35;91.95;101407.16;5021208;28;20073;-71
2022/07/02 04:10:50;;;;;;;4.80;2.97;;;;;;;12.32;93.74;101409.81;5022611;28;20398;-71
2022/07/02 04:13:16;;;;;;;4.85;2.60;;;;;;;12.46;93.43;101405.38;5023770;28;20041;-71
2022/07/02 04:15:41;;;;;;;6.97;2.95;;;;;;;12.59;93.37;101401.84;5023553;28;20036;-71
2022/07/02 04:18:06;;;;;;;6.60;2.58;;;;;;;12.70;93.52;101409.78;5023036;28;20084;-71
2022/07/02 04:20:32;;;;;;;4.60;3.05;;;;;;;12.80;93.20;101406.25;5020855;28;20041;-71
2022/07/02 04:22:58;;;;;;;6.05;2.90;;;;;;;12.93;93.50;101396.50;5021350;28;20033;-70
2022/07/02 04:25:23;;;;;;;6.47;3.65;;;;;;;13.10;93.37;101397.38;5022165;28;20120;-70
2022/07/02 04:27:48;;;;;;;6.43;3.65;;;;;;;13.25;93.15;101408.78;5020424;28;20033;-70
2022/07/02 04:30:14;;;;;;;9.63;2.97;;;;;;;13.39;93.18;101404.38;5026672;28;20116;-70
2022/07/02 04:32:39;;;;;;;15.02;2.97;;;;;;;13.54;92.85;101408.72;5022654;28;20087;-70
2022/07/02 04:35:05;;;;;;;9.48;3.53;;;;;;;13.64;92.76;101406.91;5018544;28;20579;-69
2022/07/02 04:37:30;;;;;;;8.63;3.85;;;;;;;13.73;92.57;101401.56;5021611;28;20067;-70
2022/07/02 04:39:55;;;;;;;8.43;3.10;;;;;;;13.81;92.39;101405.06;5021613;28;20049;-69
2022/07/02 04:42:21;;;;;;;8.18;3.50;;;;;;;13.85;92.45;101404.13;5020205;28;20140;-70
2022/07/02 04:44:46;;;;;;;8.27;3.22;;;;;;;13.98;92.35;101403.16;5025987;28;20065;-70
2022/07/02 04:47:11;;;;;;;10.15;3.33;;;;;;;14.11;91.23;101403.09;5026622;28;20480;-70
2022/07/02 04:49:37;;;;;;;5.65;3.28;;;;;;;14.23;90.99;101416.31;5024867;28;20059;-70
2022/07/02 04:52:03;;;;;;;8.23;3.45;;;;;;;14.30;90.34;101409.16;5026112;28;20035;-70
2022/07/02 04:54:28;;;;;;;5.65;3.13;;;;;;;14.39;89.96;101409.09;5028004;28;20091;-70
2022/07/02 04:56:53;;;;;;;11.15;3.13;;;;;;;14.46;89.72;101406.38;5027019;28;20046;-70
2022/07/02 04:59:19;;;;;;;6.93;2.78;;;;;;;14.57;89.26;101408.09;5029362;28;20029;-70
2022/07/02 05:01:44;;;;;;;9.35;2.88;;;;;;;14.62;88.88;101411.59;5025225;28;20038;-71
2022/07/02 05:04:10;;;;;;;4.90;3.38;;;;;;;14.62;88.48;101408.94;5023384;28;20026;-71
2022/07/02 05:06:36;;;;;;;6.10;3.25;;;;;;;14.73;88.36;101414.16;5028644;28;20477;-71
2022/07/02 05:09:01;;;;;;;11.48;2.65;;;;;;;14.83;87.57;101413.19;5025726;28;20080;-71
2022/07/02 05:11:27;;;;;;;10.07;2.78;;;;;;;14.89;87.21;101411.31;5019895;28;20045;-72
2022/07/02 05:13:52;;;;;;;6.13;2.50;;;;;;;15.03;87.02;101415.63;5021358;28;20096;-71
2022/07/02 05:16:18;;;;;;;8.32;3.60;;;;;;;15.07;85.65;101420.03;5019586;28;20044;-71
2022/07/02 05:18:43;;;;;;;7.93;3.13;;;;;;;15.14;85.82;101421.69;5024848;28;20033;-71
2022/07/02 05:21:08;;;;;;;5.75;3.25;;;;;;;15.19;85.80;101425.19;5022922;28;20436;-72
2022/07/02 05:23:34;;;;;;;5.63;2.90;;;;;;;15.29;86.24;101431.28;5024090;28;20034;-71
2022/07/02 05:25:59;;;;;;;6.63;3.13;;;;;;;15.40;85.62;101429.38;5030239;28;20484;-71
2022/07/02 05:28:25;;;;;;;9.77;2.85;;;;;;;15.44;85.35;101433.78;5024085;28;20042;-71
2022/07/02 05:30:51;;;;;;;5.88;2.40;;;;;;;15.53;85.59;101433.66;5027890;28;20077;-72
2022/07/02 05:33:17;;;;;;;6.88;2.83;;;;;;;15.60;84.47;101447.78;5031305;28;20040;-71
2022/07/02 05:35:42;;;;;;;6.80;2.70;;;;;;;15.64;83.86;101444.19;5021969;28;20037;-71
2022/07/02 05:38:08;;;;;;;7.72;2.65;;;;;;;15.76;83.55;101443.16;5026988;28;20026;-71
2022/07/02 05:40:33;;;;;;;16.13;3.20;;;;;;;15.83;83.09;101457.28;5024934;28;20081;-71
2022/07/02 05:42:58;;;;;;;6.40;2.80;;;;;;;15.88;82.78;101458.13;5024228;28;20061;-71
2022/07/02 05:45:24;;;;;;;14.25;2.97;;;;;;;16.03;82.46;101457.88;5023637;28;20484;-72
2022/07/02 05:47:49;;;;;;;4.93;2.50;;;;;;;16.12;82.19;101462.22;5025979;28;20037;-72
2022/07/02 05:50:14;;;;;;;5.57;2.47;;;;;;;16.25;81.51;101460.25;5026521;28;20045;-72
2022/07/02 05:52:40;;;;;;;9.85;2.22;;;;;;;16.37;81.06;101460.06;5025681;28;20507;-72
2022/07/02 05:55:06;;;;;;;9.10;2.13;;;;;;;16.50;81.05;101466.94;5029388;28;20085;-72
2022/07/02 05:57:31;;;;;;;4.82;1.83;;;;;;;16.60;80.92;101470.34;5024404;28;20034;-72
2022/07/02 05:59:57;;;;;;;5.65;2.20;;;;;;;16.70;79.01;101471.09;5025179;28;20631;-72
2022/07/02 06:02:23;;;;;;;6.50;2.38;;;;;;;16.75;78.81;101464.78;5022599;28;20045;-72
2022/07/02 06:04:48;;;;;;;6.28;2.63;;;;;;;16.89;78.11;101467.22;5022305;28;20029;-72
2022/07/02 06:09:57;;;;;;;5.93;2.72;;;;;;;17.01;77.07;101466.16;5029770;28;20041;-72
2022/07/02 06:12:23;;;;;;;5.53;1.92;;;;;;;17.11;76.93;101472.19;5027977;28;20033;-73
2022/07/02 06:14:48;;;;;;;7.55;2.38;;;;;;;17.19;75.59;101473.81;5023199;28;20673;-72
2022/07/02 06:17:14;;;;;;;5.57;2.47;;;;;;;17.15;75.35;101473.91;5024346;28;20041;-72
2022/07/02 06:19:39;;;;;;;6.43;2.22;;;;;;;17.27;76.02;101479.00;5003566;28;20073;-72
2022/07/02 06:22:05;;;;;;;6.65;2.05;;;;;;;17.40;75.64;101475.19;5023889;28;20044;-73
2022/07/02 06:24:30;;;;;;;4.47;2.03;;;;;;;17.49;75.46;101474.13;5022567;28;20121;-71
2022/07/02 06:26:55;;;;;;;4.50;1.90;;;;;;;17.60;74.83;101485.47;5025468;28;20048;-71
2022/07/02 06:29:21;;;;;;;5.75;1.95;;;;;;;17.71;74.31;101475.47;5029045;28;20033;-71
2022/07/02 06:31:46;;;;;;;4.13;1.95;;;;;;;17.84;74.05;101472.53;5022893;28;20049;-71
2022/07/02 06:34:11;;;;;;;11.98;2.63;;;;;;;17.82;73.71;101471.72;5023827;28;20384;-71
2022/07/02 06:36:37;;;;;;;10.25;2.13;;;;;;;17.91;72.94;101480.41;5025828;28;20404;-70
2022/07/02 06:39:02;;;;;;;5.60;1.65;;;;;;;18.05;72.48;101477.44;5023694;28;20396;-71
2022/07/02 06:44:31;;;;;;;6.25;2.20;;;;;;;18.24;71.17;101469.91;4945407;29;20129;-71
2022/07/02 06:46:56;;;;;;;5.78;2.53;;;;;;;18.31;70.51;101468.84;4941847;29;20036;-71
2022/07/02 06:49:22;;;;;;;6.35;1.85;;;;;;;18.40;69.91;101473.09;4982809;28;20053;-71
2022/07/02 06:51:47;;;;;;;4.45;1.92;;;;;;;18.51;69.55;101472.81;5021087;28;20071;-70
2022/07/02 06:54:12;;;;;;;4.75;1.67;;;;;;;18.67;69.98;101478.69;5025034;28;20045;-71
2022/07/02 06:56:38;;;;;;;7.10;1.77;;;;;;;18.65;68.14;101478.69;5028017;28;20124;-71
2022/07/02 06:59:04;;;;;;;5.85;1.88;;;;;;;18.72;68.94;101477.63;5028654;28;20030;-71
2022/07/02 07:01:29;;;;;;;6.97;1.95;;;;;;;18.85;68.53;101474.69;5022482;28;20048;-71
2022/07/02 07:03:55;;;;;;;4.22;1.63;;;;;;;18.96;67.95;101477.97;5023839;28;20399;-71
2022/07/02 07:06:22;;;;;;;6.63;1.65;;;;;;;19.01;66.57;101479.59;5021272;28;20040;-71
2022/07/02 07:08:52;;;;;;;7.28;1.95;;;;;;;19.12;66.96;101486.47;5021385;28;20072;-71
2022/07/02 07:11:19;;;;;;;5.82;1.42;;;;;;;19.22;67.04;101488.84;5022975;28;20040;-70
2022/07/02 07:13:44;;;;;;;5.32;2.08;;;;;;;19.32;65.04;101485.94;5025894;28;20040;-71
2022/07/02 07:16:09;;;;;;;4.72;1.63;;;;;;;19.37;65.09;101473.31;5023712;28;20399;-71
2022/07/02 07:18:34;;;;;;;4.15;2.00;;;;;;;19.45;65.41;101474.84;5021647;28;20037;-71
2022/07/02 07:21:00;;;;;;;6.10;1.58;;;;;;;19.54;65.33;101479.06;5022691;28;20123;-71
2022/07/02 07:23:25;;;;;;;2.85;1.67;;;;;;;19.64;65.28;101480.56;5030704;28;20112;-71
2022/07/02 07:25:51;;;;;;;3.75;1.73;;;;;;;19.74;64.35;101480.34;5024295;28;20034;-71
2022/07/02 07:28:16;;;;;;;5.35;2.05;;;;;;;19.81;64.25;101485.47;5022734;28;20537;-71
2022/07/02 07:30:43;;;;;;;4.80;2.08;;;;;;;19.99;63.83;101486.72;5023104;28;20041;-71
2022/07/02 07:33:08;;;;;;;9.02;2.15;;;;;;;20.10;63.10;101486.41;5021021;28;20148;-71
2022/07/02 07:35:33;;;;;;;9.95;2.00;;;;;;;20.11;63.55;101493.50;5023436;28;20105;-71
2022/07/02 07:38:00;;;;;;;6.70;2.47;;;;;;;20.20;63.35;101492.34;5020810;28;20026;-71
2022/07/02 07:40:28;;;;;;;8.43;2.15;;;;;;;20.36;62.43;101490.97;5023284;28;20049;-71
2022/07/02 07:42:54;;;;;;;5.43;2.20;;;;;;;20.50;62.21;101499.41;5022120;28;20095;-71
2022/07/02 07:45:19;;;;;;;5.47;2.08;;;;;;;20.64;61.21;101492.75;5022478;28;20476;-71
2022/07/02 07:47:44;;;;;;;5.43;1.92;;;;;;;20.62;59.23;101499.97;5030442;28;20079;-71
2022/07/02 07:50:10;;;;;;;6.00;1.58;;;;;;;20.70;60.56;101495.25;5025794;28;20049;-71
2022/07/02 07:52:35;;;;;;;4.80;2.15;;;;;;;20.80;60.08;101496.69;5023888;28;20112;-71
2022/07/02 07:55:00;;;;;;;3.80;1.52;;;;;;;20.93;59.24;101498.06;5025537;28;20041;-71
2022/07/02 07:57:26;;;;;;;4.72;1.73;;;;;;;21.09;57.12;101494.81;5028143;28;20112;-71
2022/07/02 07:59:51;;;;;;;7.15;1.55;;;;;;;21.13;57.19;101496.47;5023630;28;20120;-71
2022/07/02 08:02:17;;;;;;;5.28;1.80;;;;;;;21.30;56.56;101491.41;5020566;28;20053;-71
2022/07/02 08:04:42;;;;;;;6.68;1.60;;;;;;;21.42;55.99;101490.97;5019995;28;20049;-71
2022/07/02 08:07:07;;;;;;;5.13;1.92;;;;;;;21.52;55.41;101491.53;5023298;28;20033;-71
2022/07/02 08:09:33;;;;;;;5.05;1.67;;;;;;;21.56;54.75;101493.19;5020907;28;20069;-71
2022/07/02 08:11:59;;;;;;;5.00;1.67;;;;;;;21.63;52.54;101496.50;5021917;28;20041;-71
2022/07/02 08:14:24;;;;;;;12.60;2.00;;;;;;;21.60;50.19;101502.00;5022021;28;20034;-71
2022/07/02 08:16:50;;;;;;;6.88;1.42;;;;;;;21.69;47.84;101498.94;5021040;28;20047;-71
2022/07/02 08:19:15;;;;;;;6.00;1.80;;;;;;;21.76;48.91;101499.63;5023132;28;20416;-71
2022/07/02 08:21:40;;;;;;;4.45;1.40;;;;;;;21.88;49.52;101491.97;5019314;28;20045;-72
2022/07/02 08:24:06;;;;;;;2.78;1.33;;;;;;;22.05;48.17;101491.31;5023255;28;20053;-71
2022/07/02 08:26:31;;;;;;;2.90;1.13;;;;;;;22.19;47.94;101493.50;5025905;28;20025;-71
2022/07/02 08:28:56;;;;;;;1.67;0.90;;;;;;;22.31;46.38;101487.63;5019819;28;20172;-71
2022/07/02 08:31:22;;;;;;;2.10;1.00;;;;;;;22.46;44.26;101490.66;5020639;28;20041;-71
2022/07/02 08:33:47;;;;;;;1.58;0.70;;;;;;;22.60;42.19;101485.56;5022593;28;20033;-71
2022/07/02 08:36:12;;;;;;;1.85;0.60;;;;;;;22.62;41.83;101481.00;5021266;28;20045;-72
2022/07/02 08:38:38;;;;;;;2.35;0.70;;;;;;;22.73;42.08;101488.63;5023094;28;20037;-71
2022/07/02 08:41:04;;;;;;;3.28;0.75;;;;;;;22.80;39.18;101470.44;5025880;28;20025;-71
2022/07/02 08:43:30;;;;;;;7.28;0.82;;;;;;;22.93;42.35;101474.34;5024795;28;20037;-72
2022/07/02 08:45:59;;;;;;;2.22;1.05;;;;;;;23.02;42.14;101473.09;5021514;28;20411;-71
2022/07/02 08:48:26;;;;;;;3.50;1.13;;;;;;;23.08;39.74;101472.81;5019887;28;20096;-71
2022/07/02 08:50:52;;;;;;;2.50;1.00;;;;;;;23.07;40.81;101477.34;5022771;28;20552;-71
2022/07/02 08:53:18;;;;;;;3.38;1.05;;;;;;;23.19;41.97;101478.63;5022614;28;20029;-71
2022/07/02 08:55:43;;;;;;;5.00;1.40;;;;;;;23.26;40.73;101476.53;5021824;28;20048;-72
2022/07/02 08:58:10;;;;;;;2.05;1.02;;;;;;;23.31;41.29;101474.50;5021262;28;20026;-72
2022/07/02 09:00:37;;;;;;;3.83;1.30;;;;;;;23.26;41.30;101476.53;5020443;28;20201;-71
2022/07/02 09:03:03;;;;;;;3.47;1.17;;;;;;;23.29;39.83;101473.69;5022380;28;20037;-72
2022/07/02 09:05:29;;;;;;;4.30;1.02;;;;;;;23.31;40.60;101469.13;5018903;28;20071;-72
2022/07/02 09:07:56;;;;;;;5.38;1.45;;;;;;;23.26;39.49;101473.84;5019999;28;20033;-71
2022/07/02 09:10:24;;;;;;;2.80;0.90;;;;;;;23.35;40.05;101471.63;5021291;28;20119;-71
2022/07/02 09:12:52;;;;;;;1.05;0.70;;;;;;;23.66;40.32;101472.03;5021395;28;20389;-71
2022/07/02 09:15:17;;;;;;;3.88;1.10;;;;;;;24.00;39.23;101464.19;5019483;28;20042;-71
2022/07/02 09:17:43;;;;;;;2.05;1.02;;;;;;;24.21;39.53;101459.56;5022511;28;20037;-71
2022/07/02 09:20:10;;;;;;;2.30;0.80;;;;;;;24.45;38.87;101468.31;5020254;28;20037;-72
2022/07/02 09:22:43;;;;;;;1.45;0.70;;;;;;;24.40;36.02;101450.59;5020277;28;20119;-72
2022/07/02 09:25:15;;;;;;;3.85;1.05;;;;;;;24.39;35.03;101457.81;5022772;28;20059;-71
2022/07/02 09:27:41;;;;;;;1.80;0.73;;;;;;;24.16;35.55;101463.44;5020154;28;20041;-72
2022/07/02 09:30:10;;;;;;;4.43;0.98;;;;;;;24.08;36.59;101450.34;5021025;28;20029;-72
2022/07/02 09:32:40;;;;;;;1.58;0.75;;;;;;;24.37;36.69;101450.75;5021398;28;20128;-71
2022/07/02 09:35:06;;;;;;;3.25;0.80;;;;;;;24.51;36.58;101452.78;5018100;28;20096;-71
2022/07/02 09:37:32;;;;;;;2.47;0.82;;;;;;;24.29;34.49;101445.72;5021511;28;20029;-72
2022/07/02 09:40:00;;;;;;;4.53;0.80;;;;;;;24.31;36.26;101441.09;5020651;28;20477;-72
2022/07/02 09:42:28;;;;;;;2.53;0.70;;;;;;;24.48;36.10;101443.00;5019603;28;20071;-71
2022/07/02 09:44:55;;;;;;;3.63;0.65;;;;;;;24.45;36.62;101449.44;5022551;28;20048;-71
2022/07/02 09:47:34;;;;;;;2.40;0.70;;;;;;;24.44;34.84;101447.69;5022665;28;20068;-72
2022/07/02 09:50:12;;;;;;;3.25;0.60;;;;;;;24.31;34.59;101449.19;5019977;28;20042;-72
2022/07/02 09:52:54;;;;;;;2.35;0.68;;;;;;;24.53;35.09;101445.50;5019238;28;20046;-71
2022/07/02 09:55:24;;;;;;;1.23;0.70;;;;;;;24.89;34.81;101440.91;5019269;28;20524;-71
2022/07/02 09:57:54;;;;;;;1.92;0.80;;;;;;;25.06;34.38;101444.56;5021018;28;20037;-72
2022/07/02 10:00:21;;;;;;;2.00;0.90;;;;;;;25.55;35.11;101439.28;5021594;28;20041;-72
2022/07/02 10:02:54;;;;;;;3.05;0.95;;;;;;;25.55;32.54;101436.56;5018496;28;20080;-71
2022/07/02 10:05:31;;;;;;;5.03;0.73;;;;;;;25.86;32.73;101429.47;5021283;28;20439;-72
2022/07/02 10:07:58;;;;;;;1.33;0.90;;;;;;;26.28;32.33;101423.47;5030562;28;20443;-72
2022/07/02 10:10:39;;;;;;;1.85;0.80;;;;;;;26.22;31.56;101432.78;5029294;28;20108;-72
2022/07/02 10:13:06;;;;;;;2.00;0.87;;;;;;;26.23;32.28;101429.16;5023558;28;20099;-71
2022/07/02 10:15:33;;;;;;;1.02;0.70;;;;;;;26.43;30.45;101427.97;5022487;28;20057;-71
2022/07/02 10:18:03;;;;;;;2.97;0.70;;;;;;;26.68;32.00;101423.88;5025155;28;20033;-72
2022/07/02 10:20:30;;;;;;;2.13;0.80;;;;;;;26.93;31.22;101417.81;5025145;28;20129;-71
2022/07/02 10:23:04;;;;;;;1.45;0.55;;;;;;;27.04;29.92;101419.91;5025088;28;20595;-72
2022/07/02 10:25:31;;;;;;;5.78;0.75;;;;;;;26.79;30.82;101425.94;5028461;28;20033;-71
2022/07/02 10:27:57;;;;;;;3.05;0.80;;;;;;;26.50;30.92;101420.38;5026101;28;20431;-71
2022/07/02 10:30:42;;;;;;;2.25;0.70;;;;;;;26.38;31.43;101422.00;5023530;28;20042;-71
2022/07/02 10:33:31;;;;;;;1.77;0.60;;;;;;;26.38;31.27;101415.69;5025787;28;20053;-72
2022/07/02 10:35:59;;;;;;;2.35;0.60;;;;;;;26.47;31.52;101408.88;5021326;28;20038;-72
2022/07/02 10:38:33;;;;;;;2.53;0.70;;;;;;;26.35;30.81;101407.75;5024332;28;20045;-72
2022/07/02 10:40:59;;;;;;;1.77;0.70;;;;;;;26.15;32.08;101407.09;5025260;28;20040;-72
2022/07/02 10:43:29;;;;;;;2.22;0.70;;;;;;;26.11;31.73;101407.34;5024101;28;20407;-72
2022/07/02 10:46:22;;;;;;;1.20;0.80;;;;;;;26.31;30.83;101400.78;5024093;28;20042;-71
2022/07/02 10:48:52;;;;;;;3.45;0.70;;;;;;;26.32;30.19;101402.50;5022062;28;20412;-71
2022/07/02 10:51:20;;;;;;;1.33;0.57;;;;;;;26.50;30.60;101396.03;5021196;28;20034;-71
2022/07/02 10:53:53;;;;;;;0.88;0.55;;;;;;;26.13;30.44;101398.19;5024120;28;20400;-72
2022/07/02 10:56:19;;;;;;;2.50;0.73;;;;;;;25.65;31.51;101399.06;5024384;28;20507;-72
2022/07/02 10:58:44;;;;;;;3.10;0.70;;;;;;;25.66;32.18;101393.59;5021787;28;20119;-71
2022/07/02 11:01:21;;;;;;;1.90;0.70;;;;;;;25.71;31.86;101391.50;5024336;28;20112;-71
2022/07/02 11:03:55;;;;;;;1.52;0.65;;;;;;;25.77;31.76;101388.44;5023757;28;20071;-72
2022/07/02 11:06:30;;;;;;;1.05;0.60;;;;;;;25.96;32.18;101385.63;5020745;28;20118;-71
2022/07/02 11:09:08;;;;;;;1.25;0.57;;;;;;;26.26;32.33;101381.25;5022779;28;20049;-72
2022/07/02 11:11:34;;;;;;;1.42;0.80;;;;;;;26.43;32.48;101381.09;5008686;28;20386;-71
2022/07/02 11:14:04;;;;;;;4.32;0.75;;;;;;;26.35;31.27;101376.13;5027599;28;20073;-71
2022/07/02 11:16:38;;;;;;;2.13;0.85;;;;;;;26.42;31.15;101384.78;5022004;28;20133;-71
2022/07/02 11:19:16;;;;;;;3.30;1.02;;;;;;;26.62;31.23;101383.63;5021483;28;20504;-71
2022/07/02 11:21:42;;;;;;;1.15;0.60;;;;;;;26.79;31.55;101390.72;5021297;28;20048;-71
2022/07/02 11:24:10;;;;;;;1.95;0.70;;;;;;;26.76;31.68;101388.22;5024337;28;20029;-71
2022/07/02 11:26:39;;;;;;;1.65;0.82;;;;;;;26.46;31.09;101380.91;5021369;28;20041;-71
2022/07/02 11:29:05;;;;;;;2.67;0.70;;;;;;;26.52;31.35;101383.31;5023132;28;20034;-71
2022/07/02 11:31:31;;;;;;;3.30;0.80;;;;;;;26.69;31.49;101378.72;5022678;28;20034;-72